Flight Track Log - Related Links

Times and Time Zones

All times are in EDT time to prevent confusion due to time zone crossing. See the EGF3395 flight status page for this flight to view local times or setup timezone preferences in your user account.

Time Position Orientation Groundspeed Altitude Reporting Facility
EDT Latitude Longitude Course Direction KTS MPH feet Rate Location/Type
Thu 06:05:51 AM 32.8644 -80.1053 276° West 205 236 2,000  Level Jacksonville Center
Thu 06:06:51 AM 32.8681 -80.1769 273° West 240 276 4,800 3,000 Climbing Jacksonville Center
Thu 06:07:00 AM 32.9333 -80.3026 270° West  Level FlightAware
Thu 06:07:51 AM 32.8572 -80.2589 261° West 245 282 8,000  Level Jacksonville Center
Thu 06:08:00 AM 32.9334 -80.4082 270° West  Level FlightAware
Thu 06:08:51 AM 32.8508 -80.3481 265° West 252 290 9,700  Level Jacksonville Center
Thu 06:09:00 AM 32.9333 -80.5139 270° West  Level FlightAware
Thu 06:09:51 AM 32.8381 -80.4522 262° West 293 337 10,700  Level Jacksonville Center
Thu 06:10:00 AM 32.9427 -80.6189 276° West  Level FlightAware
Thu 06:10:51 AM 32.8294 -80.5489 264° West 316 364 11,500  Level Jacksonville Center
Thu 06:11:00 AM 32.9526 -80.7285 276° West  Level FlightAware
Thu 06:11:51 AM 32.8150 -80.6681 262° West 350 403 12,500  Level Jacksonville Center
Thu 06:12:51 AM 32.8025 -80.7894 263° West 366 421 14,100 1,700 Climbing Jacksonville Center
Thu 06:13:51 AM 32.7897 -80.9058 263° West 366 421 15,900 1,750 Climbing Jacksonville Center
Thu 06:14:51 AM 32.7789 -81.0222 264° West 366 421 17,600 1,450 Climbing Jacksonville Center
Thu 06:15:51 AM 32.7639 -81.1361 261° West 366 421 18,800 850 Climbing Jacksonville Center
Thu 06:16:51 AM 32.7531 -81.2575 264° West 366 421 19,300 650 Climbing Jacksonville Center
Thu 06:17:51 AM 32.7378 -81.3811 262° West 372 428 20,100 835 Climbing Jacksonville Center
Thu 06:19:29 AM 32.7117 -81.5897 262° West 392 451 21,500 873 Climbing Atlanta Center
Thu 06:20:29 AM 32.6975 -81.7186 263° West 397 457 22,400 900 Climbing Atlanta Center
Thu 06:21:29 AM 32.6808 -81.8475 261° West 397 457 23,300 950 Climbing Atlanta Center
Thu 06:22:29 AM 32.6644 -81.9736 261° West 397 457 24,300 950 Climbing Atlanta Center
Thu 06:23:29 AM 32.6517 -82.0972 263° West 392 451 25,200 900 Climbing Atlanta Center
Thu 06:24:29 AM 32.6369 -82.2183 262° West 392 451 26,100 1,050 Climbing Atlanta Center
Thu 06:25:29 AM 32.6222 -82.3594 263° West 387 445 27,300 850 Climbing Atlanta Center
Thu 06:26:29 AM 32.6050 -82.4781 260° West 382 440 27,800 450 Climbing Atlanta Center
Thu 06:27:29 AM 32.5897 -82.6014 262° West 382 440 28,200 450 Climbing Atlanta Center
Thu 06:28:29 AM 32.5767 -82.7275 263° West 382 440 28,700 450 Climbing Atlanta Center
Thu 06:29:29 AM 32.5611 -82.8533 262° West 387 445 29,100 450 Climbing Atlanta Center
Thu 06:30:29 AM 32.5519 -82.9817 265° West 392 451 29,600 450 Climbing Atlanta Center
Thu 06:31:29 AM 32.5403 -83.1075 264° West 392 451 30,000 450 Climbing Atlanta Center
Thu 06:32:29 AM 32.5289 -83.2356 264° West 392 451 30,500 500 Climbing Atlanta Center
Thu 06:33:29 AM 32.5192 -83.3639 265° West 392 451 31,000 600 Climbing Atlanta Center
Thu 06:34:29 AM 32.5072 -83.4894 264° West 392 451 31,700 800 Climbing Atlanta Center
Thu 06:35:29 AM 32.4972 -83.6153 265° West 387 445 32,600 900 Climbing Atlanta Center
Thu 06:36:29 AM 32.4850 -83.7383 263° West 387 445 33,500 900 Climbing Atlanta Center
Thu 06:37:29 AM 32.4750 -83.8617 265° West 387 445 34,400 950 Climbing Atlanta Center
Thu 06:38:29 AM 32.4625 -83.9847 263° West 387 445 35,400 800 Climbing Atlanta Center
Thu 06:39:29 AM 32.4500 -84.1053 263° West 382 440 36,000 300 Climbing Atlanta Center
Thu 06:40:29 AM 32.4394 -84.2258 264° West 382 440 36,000  Level Atlanta Center
Thu 06:41:29 AM 32.4267 -84.3464 263° West 382 440 36,000  Level Atlanta Center
Thu 06:42:29 AM 32.4158 -84.4694 264° West 382 440 36,000  Level Atlanta Center
Thu 06:43:29 AM 32.4028 -84.5900 263° West 382 440 36,000  Level Atlanta Center
Thu 06:44:29 AM 32.3919 -84.7103 264° West 382 440 36,000  Level Atlanta Center
Thu 06:45:29 AM 32.3808 -84.8086 262° West 377 434 36,000  Level Atlanta Center
Thu 06:46:29 AM 32.3694 -84.9339 264° West 366 421 36,000  Level Atlanta Center
Thu 06:47:29 AM 32.3581 -85.0544 264° West 366 421 36,000  Level Atlanta Center
Thu 06:48:29 AM 32.3447 -85.1722 262° West 366 421 36,000  Level Atlanta Center
Thu 06:49:29 AM 32.3331 -85.2900 263° West 366 421 36,000  Level Atlanta Center
Thu 06:50:29 AM 32.3214 -85.4078 263° West 366 421 36,000  Level Atlanta Center
Thu 06:51:29 AM 32.3075 -85.5256 262° West 366 421 36,000  Level Atlanta Center
Thu 06:52:29 AM 32.2956 -85.6433 263° West 366 421 36,000  Level Atlanta Center
Thu 06:53:29 AM 32.2792 -85.7783 262° West 371 427 36,000  Level Atlanta Center
Thu 06:54:29 AM 32.2669 -85.8958 263° West 377 434 36,000  Level Atlanta Center
Thu 06:55:29 AM 32.2547 -86.0111 263° West 367 422 36,000  Level Atlanta Center
Thu 06:56:29 AM 32.2422 -86.1336 263° West 367 422 36,000  Level Atlanta Center
Thu 06:57:29 AM 32.2358 -86.2586 267° West 377 434 36,000  Level Atlanta Center
Thu 06:58:29 AM 32.2256 -86.3761 264° West 377 434 36,000  Level Atlanta Center
Thu 06:59:29 AM 32.2378 -86.4944 277° West 372 428 36,000  Level Atlanta Center
Thu 07:00:29 AM 32.2478 -86.6150 276° West 372 428 36,000  Level Atlanta Center
Thu 07:01:29 AM 32.2517 -86.7306 272° West 366 421 36,000  Level Atlanta Center
Thu 07:02:29 AM 32.2614 -86.8536 275° West 366 421 36,000  Level Atlanta Center
Thu 07:03:29 AM 32.2669 -86.9717 273° West 366 421 36,000  Level Atlanta Center
Thu 07:04:29 AM 32.2744 -87.0922 274° West 366 421 36,000  Level Atlanta Center
Thu 07:05:29 AM 32.2842 -87.2106 276° West 366 421 36,000  Level Atlanta Center
Thu 07:06:29 AM 32.2914 -87.3311 274° West 366 421 36,000  Level Atlanta Center
Thu 07:07:29 AM 32.3047 -87.4544 277° West 366 421 36,000  Level Atlanta Center
Thu 07:08:29 AM 32.3117 -87.5778 274° West 366 421 36,000  Level Atlanta Center
Thu 07:09:29 AM 32.3186 -87.6958 274° West 366 421 36,000  Level Atlanta Center
Thu 07:11:33 AM 32.3308 -87.9331 274° West 368 423 36,000  Level Memphis Center
Thu 07:12:33 AM 32.3394 -88.0511 275° West 368 423 36,000  Level Memphis Center
Thu 07:13:33 AM 32.3458 -88.1714 274° West 368 423 36,000  Level Memphis Center
Thu 07:14:33 AM 32.3519 -88.2892 274° West 368 423 36,000  Level Memphis Center
Thu 07:15:33 AM 32.3581 -88.4094 273° West 368 423 36,000  Level Memphis Center
Thu 07:16:33 AM 32.3642 -88.5300 273° West 368 423 36,000  Level Memphis Center
Thu 07:17:33 AM 32.3719 -88.6428 275° West 358 412 36,000  Level Memphis Center
Thu 07:18:33 AM 32.3778 -88.7608 273° West 358 412 36,000  Level Memphis Center
Thu 07:19:33 AM 32.3833 -88.8814 273° West 364 419 36,000  Level Memphis Center
Thu 07:20:33 AM 32.3911 -88.9992 275° West 364 419 36,000  Level Memphis Center
Thu 07:21:33 AM 32.3964 -89.1172 273° West 364 419 36,000  Level Memphis Center
Thu 07:22:33 AM 32.4039 -89.2403 274° West 364 419 36,000  Level Memphis Center
Thu 07:23:33 AM 32.4089 -89.3583 273° West 364 419 36,000  Level Memphis Center
Thu 07:24:33 AM 32.4161 -89.4764 274° West 364 419 36,000  Level Memphis Center
Thu 07:25:33 AM 32.4192 -89.5944 272° West 364 419 36,000  Level Memphis Center
Thu 07:26:33 AM 32.4258 -89.7100 274° West 364 419 36,000  Level Memphis Center
Thu 07:27:33 AM 32.4306 -89.8256 273° West 364 419 36,000  Level Memphis Center
Thu 07:28:33 AM 32.4375 -89.9389 274° West 364 419 36,000  Level Memphis Center
Thu 07:29:33 AM 32.4419 -90.0544 273° West 364 419 36,000  Level Memphis Center
Thu 07:30:33 AM 32.4483 -90.1703 274° West 364 419 36,000  Level Memphis Center
Thu 07:31:33 AM 32.4506 -90.2833 271° West 359 413 36,000  Level Memphis Center
Thu 07:32:33 AM 32.4569 -90.3967 274° West 354 407 36,000  Level Memphis Center
Thu 07:33:33 AM 32.4611 -90.5125 272° West 354 407 36,000  Level Memphis Center
Thu 07:34:33 AM 32.4650 -90.6233 272° West 349 402 36,000  Level Memphis Center
Thu 07:35:33 AM 32.4708 -90.7389 273° West 349 402 36,000  Level Memphis Center
Thu 07:36:33 AM 32.4747 -90.8522 272° West 349 402 36,000  Level Memphis Center
Thu 07:37:33 AM 32.4783 -90.9656 272° West 349 402 36,000  Level Memphis Center
Thu 07:39:54 AM 32.4925 -91.2517 273° West 351 404 36,000  Level Fort Center
Thu 07:40:54 AM 32.4958 -91.3647 272° West 351 404 36,000  Level Fort Center
Thu 07:41:54 AM 32.5014 -91.4800 273° West 351 404 36,000  Level Fort Center
Thu 07:42:54 AM 32.5047 -91.5956 272° West 351 404 36,000  Level Fort Center
Thu 07:43:54 AM 32.5081 -91.7111 272° West 351 404 36,000  Level Fort Center
Thu 07:44:54 AM 32.5111 -91.8292 272° West 351 404 36,000  Level Fort Center
Thu 07:45:54 AM 32.5161 -91.9419 273° West 351 404 36,000  Level Fort Center
Thu 07:46:54 AM 32.5169 -92.0603 271° West 351 404 36,000  Level Fort Center
Thu 07:47:54 AM 32.5094 -92.1764 266° West 357 411 36,000  Level Fort Center
Thu 07:48:54 AM 32.4994 -92.2928 264° West 357 411 36,000  Level Fort Center
Thu 07:49:54 AM 32.4939 -92.4114 267° West 357 411 36,000  Level Fort Center
Thu 07:50:54 AM 32.4875 -92.5100 266° West 345 397 36,000  Level Fort Center
Thu 07:51:54 AM 32.4814 -92.6236 266° West 345 397 36,000  Level Fort Center
Thu 07:52:54 AM 32.4692 -92.7450 263° West 356 410 36,000  Level Fort Center
Thu 07:53:54 AM 32.4592 -92.8686 265° West 356 410 36,000  Level Fort Center
Thu 07:54:54 AM 32.4508 -92.9872 265° West 356 410 36,000  Level Fort Center
Thu 07:55:54 AM 32.4403 -93.1033 264° West 356 410 36,000  Level Fort Center
Thu 07:56:54 AM 32.4297 -93.2219 264° West 361 415 36,000  Level Fort Center
Thu 07:57:54 AM 32.4208 -93.3381 265° West 366 421 36,000  Level Fort Center
Thu 07:58:54 AM 32.4122 -93.4564 265° West 366 421 36,000  Level Fort Center
Thu 07:59:54 AM 32.4033 -93.5725 265° West 366 421 36,000  Level Fort Center
Thu 08:00:54 AM 32.4003 -93.6858 268° West 361 415 36,000  Level Fort Center
Thu 08:01:54 AM 32.4036 -93.7989 272° West 350 403 36,000  Level Fort Center
Thu 08:02:54 AM 32.4047 -93.9094 271° West 350 403 36,000  Level Fort Center
Thu 08:03:54 AM 32.4058 -94.0253 271° West 350 403 36,000  Level Fort Center
Thu 08:04:54 AM 32.4086 -94.1358 272° West 350 403 36,000  Level Fort Center
Thu 08:05:54 AM 32.4097 -94.2514 271° West 350 403 36,000  Level Fort Center
Thu 08:06:54 AM 32.4125 -94.3644 272° West 350 403 36,000  Level Fort Center
Thu 08:07:54 AM 32.4131 -94.4775 270° West 344 396 36,000  Level Fort Center
Thu 08:08:54 AM 32.4136 -94.5933 270° West 349 402 36,000  Level Fort Center
Thu 08:09:54 AM 32.4161 -94.7089 271° West 349 402 36,000  Level Fort Center
Thu 08:10:54 AM 32.4061 -94.8272 264° West 349 402 36,000 -400 Level Fort Center
Thu 08:11:54 AM 32.3875 -94.9433 259° West 354 407 35,200 -1,350 Descending Fort Center
Thu 08:12:54 AM 32.3711 -95.0619 261° West 362 417 33,300 -1,950 Descending Fort Center
Thu 08:13:54 AM 32.3544 -95.1828 261° West 375 432 31,300 -2,000 Descending Fort Center
Thu 08:14:54 AM 32.3356 -95.3061 260° West 375 432 29,300 -2,050 Descending Fort Center
Thu 08:15:54 AM 32.3397 -95.4314 272° West 380 437 27,200 -2,050 Descending Fort Center
Thu 08:16:54 AM 32.3458 -95.5569 273° West 386 444 25,200 -2,000 Descending Fort Center
Thu 08:17:54 AM 32.3539 -95.6844 274° West 386 444 23,200 -1,850 Descending Fort Center
Thu 08:18:54 AM 32.3533 -95.8050 270° West 391 450 21,500 -2,000 Descending Fort Center
Thu 08:19:54 AM 32.3614 -95.9425 274° West 391 450 19,200 -1,850 Descending Fort Center
Thu 08:20:54 AM 32.3667 -96.0533 273° West 378 435 17,800 -1,800 Descending Fort Center
Thu 08:21:54 AM 32.3722 -96.1836 273° West 372 428 15,600 -2,000 Descending Fort Center
Thu 08:22:54 AM 32.3836 -96.2892 277° West 367 422 13,800 -2,000 Descending Fort Center
Thu 08:23:54 AM 32.4389 -96.4017 300° West 360 414 11,600 -1,400 Descending Fort Center
Thu 08:24:54 AM 32.4792 -96.4850 300° West 340 391 11,000 -300 Descending Fort Center
Thu 08:25:54 AM 32.5281 -96.5903 299° West 329 379 11,000  Level Fort Center
Thu 08:26:54 AM 32.5703 -96.6739 301° West 334 384 11,000  Level Fort Center
Thu 08:27:54 AM 32.6458 -96.7644 315° West 340 391 11,000  Level Fort Center
Thu 08:28:31 AM 32.6833 -96.8167 310° West 348 400 11,000  Level Dallas TRACON
Thu 08:29:31 AM 32.7500 -96.8833 320° Northwest 266 306 11,000 -500 Level Dallas TRACON
Thu 08:30:31 AM 32.8000 -96.9000 344° North 246 283 10,000 -1,600 Descending Dallas TRACON
Thu 08:31:31 AM 32.8667 -96.9000 360° North 238 274 7,800 -2,150 Descending Dallas TRACON
Thu 08:32:31 AM 32.9333 -96.9000 360° North 227 261 5,700 -2,136 Descending Dallas TRACON
Thu 08:33:43 AM 33.0167 -96.9333 341° North 217 250 3,100 -2,167 Descending Dallas TRACON

Login

Don't have an account? Register now (free) for customized features, flight alerts, and more!